Time;durP1;ratioP1;P1;durP2;ratioP2;P2;SDS_P1;SDS_P2;PMS_P1;PMS_P2;Temp;Humidity;BMP_temperature;BMP_pressure;BME280_temperature;BME280_humidity;BME280_pressure;Samples;Min_cycle;Max_cycle;Signal;HPM_P1;HPM_P2
2023/01/04 00:00:30;;;;;;;;;;;8.20;99.90;;;;;;5043436;28;20023;-67
2023/01/04 00:02:56;;;;;;;;;;;8.20;99.90;;;;;;5050861;28;19929;-65
2023/01/04 00:05:21;;;;;;;;;;;8.20;99.90;;;;;;5051137;28;19925;-66
2023/01/04 00:07:47;;;;;;;;;;;8.20;99.90;;;;;;5052019;28;19927;-67
2023/01/04 00:10:13;;;;;;;;;;;8.20;99.90;;;;;;5051783;28;19924;-69
2023/01/04 00:12:38;;;;;;;;;;;8.20;99.90;;;;;;5051072;28;19921;-67
2023/01/04 00:15:04;;;;;;;;;;;8.20;99.90;;;;;;5051825;28;20058;-67
2023/01/04 00:17:29;;;;;;;;;;;8.20;99.90;;;;;;5016866;28;19929;-67
2023/01/04 00:19:55;;;;;;;;;;;8.30;99.90;;;;;;5067455;28;20267;-67
2023/01/04 00:22:21;;;;;;;;;;;8.20;99.90;;;;;;5051281;28;19947;-67
2023/01/04 00:24:46;;;;;;;;;;;8.20;99.90;;;;;;5053465;28;19932;-69
2023/01/04 00:27:12;;;;;;;;;;;8.20;99.90;;;;;;5051818;28;19931;-67
2023/01/04 00:29:37;;;;;;;;;;;8.20;99.90;;;;;;5051082;28;19943;-67
2023/01/04 00:32:03;;;;;;;;;;;8.20;99.90;;;;;;5051435;28;19956;-67
2023/01/04 00:34:28;;;;;;;;;;;8.20;99.90;;;;;;5053807;28;20393;-67
2023/01/04 00:36:54;;;;;;;;;;;8.20;99.90;;;;;;5051628;28;19928;-67
2023/01/04 00:39:20;;;;;;;;;;;8.20;99.90;;;;;;5050988;28;19978;-73
2023/01/04 00:41:46;;;;;;;;;;;8.10;99.90;;;;;;5051231;28;19920;-68
2023/01/04 00:44:13;;;;;;;;;;;8.10;99.90;;;;;;5056026;28;19964;-68
2023/01/04 00:46:39;;;;;;;;;;;8.10;99.90;;;;;;5049437;28;19986;-69
2023/01/04 00:49:05;;;;;;;;;;;8.10;99.90;;;;;;5051404;28;19920;-69
2023/01/04 00:51:32;;;;;;;;;;;8.10;99.90;;;;;;5050467;28;19928;-68
2023/01/04 00:53:59;;;;;;;;;;;8.00;99.90;;;;;;5054295;28;19985;-67
2023/01/04 00:56:24;;;;;;;;;;;8.00;99.90;;;;;;5050496;28;19920;-68
2023/01/04 00:58:54;;;;;;;;;;;8.00;99.90;;;;;;5051301;28;19947;-67
2023/01/04 01:01:20;;;;;;;;;;;8.00;99.90;;;;;;5051306;28;19974;-68
2023/01/04 01:03:46;;;;;;;;;;;8.00;99.90;;;;;;5048871;28;19929;-67
2023/01/04 01:06:12;;;;;;;;;;;8.00;99.90;;;;;;5079267;28;19931;-68
2023/01/04 01:08:38;;;;;;;;;;;8.00;99.90;;;;;;5056833;28;19928;-69
2023/01/04 01:11:04;;;;;;;;;;;8.00;99.90;;;;;;5050900;28;20284;-69
2023/01/04 01:13:30;;;;;;;;;;;8.00;99.90;;;;;;5050413;28;20332;-69
2023/01/04 01:16:00;;;;;;;;;;;8.00;99.90;;;;;;5050977;28;19924;-69
2023/01/04 01:18:27;;;;;;;;;;;8.10;99.90;;;;;;5051890;28;19925;-69
2023/01/04 01:20:53;;;;;;;;;;;8.00;99.90;;;;;;5050820;28;19927;-68
2023/01/04 01:23:18;;;;;;;;;;;8.00;99.90;;;;;;5051040;28;19921;-67
2023/01/04 01:25:44;;;;;;;;;;;7.90;99.90;;;;;;5049812;28;19920;-67
2023/01/04 01:28:09;;;;;;;;;;;8.00;99.90;;;;;;5054075;28;19947;-67
2023/01/04 01:30:40;;;;;;;;;;;7.90;99.90;;;;;;5052316;28;19970;-67
2023/01/04 01:33:05;;;;;;;;;;;8.00;99.90;;;;;;5053522;28;20382;-68
2023/01/04 01:35:31;;;;;;;;;;;8.00;99.90;;;;;;5054375;28;19978;-67
2023/01/04 01:37:57;;;;;;;;;;;8.00;99.90;;;;;;5055898;28;19978;-67
2023/01/04 01:40:23;;;;;;;;;;;8.00;99.90;;;;;;5053834;28;19924;-68
2023/01/04 01:42:48;;;;;;;;;;;8.00;99.90;;;;;;5086587;28;19925;-68
2023/01/04 01:45:30;;;;;;;;;;;8.00;99.90;;;;;;5054169;28;19927;-67
2023/01/04 01:48:17;;;;;;;;;;;8.00;99.90;;;;;;5054761;28;19931;-68
2023/01/04 01:50:48;;;;;;;;;;;8.00;99.90;;;;;;5056565;28;19928;-67
2023/01/04 01:53:14;;;;;;;;;;;8.00;99.90;;;;;;5050107;28;19925;-68
2023/01/04 01:55:40;;;;;;;;;;;8.00;99.90;;;;;;5053872;28;19927;-68
2023/01/04 01:58:07;;;;;;;;;;;8.00;99.90;;;;;;5054126;28;19921;-67
2023/01/04 02:00:33;;;;;;;;;;;7.90;99.90;;;;;;5059239;28;19927;-67
2023/01/04 02:03:19;;;;;;;;;;;8.00;99.90;;;;;;5054110;28;19927;-67
2023/01/04 02:05:46;;;;;;;;;;;8.00;99.90;;;;;;5053714;28;19925;-68
2023/01/04 02:08:12;;;;;;;;;;;8.00;99.90;;;;;;5054316;28;19975;-67
2023/01/04 02:10:38;;;;;;;;;;;7.90;99.90;;;;;;5064397;28;19920;-67
2023/01/04 02:13:12;;;;;;;;;;;7.90;99.90;;;;;;5054049;28;20019;-66
2023/01/04 02:15:44;;;;;;;;;;;7.90;99.90;;;;;;5053577;28;19920;-66
2023/01/04 02:18:12;;;;;;;;;;;7.90;99.90;;;;;;5054059;28;19925;-67
2023/01/04 02:20:42;;;;;;;;;;;8.00;99.90;;;;;;5054466;28;19921;-67
2023/01/04 02:23:10;;;;;;;;;;;8.00;99.90;;;;;;5052387;28;19921;-68
2023/01/04 02:25:45;;;;;;;;;;;8.00;99.90;;;;;;5054708;28;19925;-68
2023/01/04 02:28:29;;;;;;;;;;;8.50;99.90;;;;;;5046633;28;20298;-68
2023/01/04 02:31:03;;;;;;;;;;;8.00;99.90;;;;;;5054246;28;20382;-67
2023/01/04 02:33:47;;;;;;;;;;;8.00;99.90;;;;;;5052868;28;19931;-68
2023/01/04 02:36:32;;;;;;;;;;;8.00;99.90;;;;;;5053701;28;19924;-68
2023/01/04 02:39:03;;;;;;;;;;;8.00;99.90;;;;;;5053180;28;20279;-68
2023/01/04 02:41:35;;;;;;;;;;;8.10;99.90;;;;;;5052626;28;20460;-68
2023/01/04 02:47:03;;;;;;;;;;;8.00;99.90;;;;;;5053152;28;19928;-69
2023/01/04 02:52:13;;;;;;;;;;;8.00;99.90;;;;;;5054412;28;20464;-68
2023/01/04 02:54:39;;;;;;;;;;;8.10;99.90;;;;;;5052711;28;20035;-74
2023/01/04 02:57:21;;;;;;;;;;;8.10;99.90;;;;;;5051214;28;19977;-68
2023/01/04 02:59:53;;;;;;;;;;;8.10;99.90;;;;;;5048951;28;19986;-73
2023/01/04 03:08:02;;;;;;;;;;;8.30;99.90;;;;;;5049437;28;19920;-69
2023/01/04 03:10:41;;;;;;;;;;;8.30;99.90;;;;;;5050408;28;19927;-68
2023/01/04 03:13:12;;;;;;;;;;;8.30;99.90;;;;;;5057215;28;19950;-68
2023/01/04 03:15:39;;;;;;;;;;;8.30;99.90;;;;;;5054986;28;20324;-68
2023/01/04 03:18:11;;;;;;;;;;;8.30;99.90;;;;;;5040432;28;20433;-68
2023/01/04 03:20:37;;;;;;;;;;;8.30;99.90;;;;;;5038965;28;19944;-68
2023/01/04 03:37:12;;;;;;;;;;;8.50;99.90;;;;;;5042732;28;20007;-68
2023/01/04 03:48:33;;;;;;;;;;;8.60;99.90;;;;;;5035063;28;19966;-68
2023/01/04 03:51:13;;;;;;;;;;;8.70;99.90;;;;;;5039688;28;20033;-68
2023/01/04 03:53:45;;;;;;;;;;;8.60;99.90;;;;;;5034491;28;20350;-68
2023/01/04 03:56:11;;;;;;;;;;;8.80;99.90;;;;;;5049714;28;20015;-68
2023/01/04 03:58:37;;;;;;;;;;;8.80;99.90;;;;;;5038369;28;19932;-68
2023/01/04 04:01:03;;;;;;;;;;;8.80;99.90;;;;;;5051565;28;20362;-68
2023/01/04 04:08:57;;;;;;;;;;;8.80;99.90;;;;;;5067264;28;19928;-67
2023/01/04 04:11:29;;;;;;;;;;;8.90;99.90;;;;;;5055240;28;19921;-67
2023/01/04 04:13:54;;;;;;;;;;;9.00;99.90;;;;;;5050100;28;19921;-67
2023/01/04 04:16:20;;;;;;;;;;;8.90;99.90;;;;;;5062128;28;19980;-69
2023/01/04 04:18:47;;;;;;;;;;;9.00;99.90;;;;;;5051701;28;19929;-67
2023/01/04 04:21:12;;;;;;;;;;;9.10;99.90;;;;;;5050136;28;19970;-68
2023/01/04 04:23:38;;;;;;;;;;;9.10;99.90;;;;;;5050628;28;20003;-68
2023/01/04 04:26:04;;;;;;;;;;;9.10;99.90;;;;;;5056358;28;20005;-68
2023/01/04 04:28:29;;;;;;;;;;;9.20;99.90;;;;;;5054190;28;19925;-68
2023/01/04 04:30:55;;;;;;;;;;;9.20;99.90;;;;;;5045530;28;19928;-69
2023/01/04 04:33:21;;;;;;;;;;;9.30;99.90;;;;;;5048239;28;19943;-69
2023/01/04 04:35:50;;;;;;;;;;;9.30;99.90;;;;;;5043228;28;19928;-68
2023/01/04 04:38:16;;;;;;;;;;;9.40;99.90;;;;;;5040033;28;19968;-69
2023/01/04 04:43:26;;;;;;;;;;;9.50;99.90;;;;;;5047126;28;19932;-69
2023/01/04 04:45:51;;;;;;;;;;;9.50;99.90;;;;;;5042035;28;19921;-70
2023/01/04 04:48:17;;;;;;;;;;;9.60;99.90;;;;;;5046977;28;19956;-70
2023/01/04 04:50:42;;;;;;;;;;;9.60;99.90;;;;;;5047657;28;19921;-71
2023/01/04 04:53:08;;;;;;;;;;;9.60;99.90;;;;;;5027353;28;20412;-69
2023/01/04 04:55:33;;;;;;;;;;;9.70;99.90;;;;;;5045509;28;19924;-68
2023/01/04 04:57:59;;;;;;;;;;;9.80;99.90;;;;;;5048134;28;20024;-69
2023/01/04 05:00:25;;;;;;;;;;;9.80;99.90;;;;;;5046423;28;19928;-67
2023/01/04 05:02:50;;;;;;;;;;;9.80;99.90;;;;;;5045590;28;19931;-68
2023/01/04 05:05:16;;;;;;;;;;;9.80;99.90;;;;;;5050920;28;19936;-68
2023/01/04 05:07:41;;;;;;;;;;;9.80;99.90;;;;;;5052216;28;19968;-68
2023/01/04 05:10:07;;;;;;;;;;;9.90;99.90;;;;;;5049022;28;19924;-68
2023/01/04 05:15:16;;;;;;;;;;;9.90;99.90;;;;;;5040201;28;20014;-67
2023/01/04 05:17:42;;;;;;;;;;;10.00;99.90;;;;;;5043748;28;19964;-67
2023/01/04 05:20:08;;;;;;;;;;;10.00;99.90;;;;;;5046004;28;19921;-71
2023/01/04 05:22:34;;;;;;;;;;;10.00;99.90;;;;;;5049738;28;20007;-68
2023/01/04 05:24:59;;;;;;;;;;;10.10;99.90;;;;;;5039565;28;19925;-75
2023/01/04 05:27:25;;;;;;;;;;;10.10;99.90;;;;;;5024780;28;20263;-69
2023/01/04 05:32:35;;;;;;;;;;;10.20;99.90;;;;;;5047138;28;19928;-72
2023/01/04 05:35:00;;;;;;;;;;;10.20;99.90;;;;;;5040436;28;19921;-74
2023/01/04 05:37:26;;;;;;;;;;;10.20;99.90;;;;;;5040921;28;20668;-68
2023/01/04 05:39:51;;;;;;;;;;;10.20;99.90;;;;;;5048732;28;19963;-68
2023/01/04 05:42:26;;;;;;;;;;;10.20;99.90;;;;;;5042806;28;19929;-68
2023/01/04 05:44:56;;;;;;;;;;;10.20;99.90;;;;;;5042874;28;20358;-68
2023/01/04 05:47:23;;;;;;;;;;;10.30;99.90;;;;;;5041591;28;19923;-68
2023/01/04 05:49:48;;;;;;;;;;;10.30;99.90;;;;;;5047957;28;19930;-68
2023/01/04 05:52:14;;;;;;;;;;;10.30;99.90;;;;;;5041739;28;20319;-69
2023/01/04 05:54:40;;;;;;;;;;;10.30;99.90;;;;;;5048183;28;19920;-68
2023/01/04 05:57:05;;;;;;;;;;;10.20;99.90;;;;;;5040976;28;19932;-69
2023/01/04 05:59:31;;;;;;;;;;;10.30;99.90;;;;;;5040502;28;19948;-68
2023/01/04 06:01:57;;;;;;;;;;;10.20;99.90;;;;;;5046407;28;20305;-68
2023/01/04 06:04:22;;;;;;;;;;;10.30;99.90;;;;;;5045817;28;20683;-68
2023/01/04 06:06:48;;;;;;;;;;;10.20;99.90;;;;;;5050822;28;19921;-69
2023/01/04 06:09:14;;;;;;;;;;;10.30;99.90;;;;;;5050022;28;19920;-69
2023/01/04 06:11:39;;;;;;;;;;;10.20;99.90;;;;;;5055548;28;19929;-68
2023/01/04 06:14:05;;;;;;;;;;;10.30;99.90;;;;;;5050489;28;19924;-75
2023/01/04 06:16:31;;;;;;;;;;;10.30;99.90;;;;;;5051452;28;19925;-68
2023/01/04 06:18:56;;;;;;;;;;;10.30;99.90;;;;;;5054340;28;19931;-68
2023/01/04 06:21:24;;;;;;;;;;;10.40;99.90;;;;;;5036915;28;19929;-68
2023/01/04 06:23:50;;;;;;;;;;;10.40;99.90;;;;;;5054019;28;19924;-68
2023/01/04 06:26:15;;;;;;;;;;;10.40;99.90;;;;;;5053256;28;20373;-69
2023/01/04 06:28:41;;;;;;;;;;;10.40;99.90;;;;;;5052976;28;20262;-69
2023/01/04 06:31:07;;;;;;;;;;;10.40;99.90;;;;;;5053451;28;19924;-74
2023/01/04 06:33:33;;;;;;;;;;;10.40;99.90;;;;;;5081862;28;19925;-69
2023/01/04 06:35:59;;;;;;;;;;;10.50;99.90;;;;;;5050059;28;19928;-69
2023/01/04 06:38:25;;;;;;;;;;;10.40;99.90;;;;;;5040216;28;19928;-69
2023/01/04 06:40:50;;;;;;;;;;;10.40;99.90;;;;;;5038164;28;19925;-68
2023/01/04 06:43:16;;;;;;;;;;;10.40;99.90;;;;;;5048436;28;19929;-68
2023/01/04 06:45:41;;;;;;;;;;;10.50;99.90;;;;;;5038904;28;19929;-69
2023/01/04 06:48:07;;;;;;;;;;;10.50;99.90;;;;;;5040870;28;19921;-70
2023/01/04 06:50:34;;;;;;;;;;;10.40;99.90;;;;;;5019758;28;19970;-68
2023/01/04 06:53:00;;;;;;;;;;;10.50;99.90;;;;;;5042377;28;19925;-68
2023/01/04 06:55:26;;;;;;;;;;;10.50;99.90;;;;;;5049239;28;19929;-68
2023/01/04 06:57:51;;;;;;;;;;;10.50;99.90;;;;;;5048881;28;19920;-70
2023/01/04 07:00:17;;;;;;;;;;;10.50;99.90;;;;;;5047656;28;19956;-68
2023/01/04 07:02:43;;;;;;;;;;;10.50;99.90;;;;;;5048804;28;19921;-67
2023/01/04 07:05:08;;;;;;;;;;;10.60;99.90;;;;;;5053531;28;19931;-68
2023/01/04 07:07:34;;;;;;;;;;;10.50;99.90;;;;;;5056196;28;20011;-68
2023/01/04 07:10:00;;;;;;;;;;;10.60;99.90;;;;;;5035779;28;19927;-68
2023/01/04 07:12:25;;;;;;;;;;;10.50;99.90;;;;;;5051301;28;19921;-69
2023/01/04 07:14:51;;;;;;;;;;;10.50;99.90;;;;;;5052109;28;19921;-68
2023/01/04 07:17:17;;;;;;;;;;;10.50;99.90;;;;;;5055960;28;19921;-69
2023/01/04 07:19:42;;;;;;;;;;;10.50;99.90;;;;;;5053013;28;20293;-68
2023/01/04 07:22:08;;;;;;;;;;;10.60;99.90;;;;;;5053011;28;20064;-68
2023/01/04 07:24:34;;;;;;;;;;;10.60;99.90;;;;;;5051939;28;20116;-71
2023/01/04 07:27:00;;;;;;;;;;;10.60;99.90;;;;;;5051820;28;19928;-70
2023/01/04 07:29:25;;;;;;;;;;;10.60;99.90;;;;;;5051939;28;19920;-67
2023/01/04 07:31:51;;;;;;;;;;;10.60;99.90;;;;;;5052927;28;20001;-66
2023/01/04 07:34:18;;;;;;;;;;;10.70;99.90;;;;;;5052416;28;20344;-77
2023/01/04 07:36:45;;;;;;;;;;;10.70;99.90;;;;;;5050935;28;20025;-66
2023/01/04 07:39:11;;;;;;;;;;;10.60;99.90;;;;;;5052943;28;19924;-66
2023/01/04 07:41:38;;;;;;;;;;;10.60;99.90;;;;;;5051886;28;19928;-68
2023/01/04 07:44:04;;;;;;;;;;;10.60;99.90;;;;;;5034586;28;19925;-66
2023/01/04 07:46:29;;;;;;;;;;;10.60;99.90;;;;;;5045127;28;20404;-69
2023/01/04 07:48:55;;;;;;;;;;;10.60;99.90;;;;;;5052493;28;20003;-67
2023/01/04 07:51:21;;;;;;;;;;;10.60;99.90;;;;;;5050793;28;19920;-69
2023/01/04 07:53:46;;;;;;;;;;;10.60;99.90;;;;;;5051804;28;19940;-67
2023/01/04 07:56:12;;;;;;;;;;;10.60;99.90;;;;;;5051525;28;19928;-67
2023/01/04 07:58:38;;;;;;;;;;;10.60;99.90;;;;;;5052189;28;20011;-66
2023/01/04 08:01:14;;;;;;;;;;;10.60;99.90;;;;;;5052249;28;20012;-66
2023/01/04 08:03:40;;;;;;;;;;;10.60;99.90;;;;;;5050610;28;20011;-67
2023/01/04 08:06:07;;;;;;;;;;;10.70;99.90;;;;;;5051129;28;19964;-66
2023/01/04 08:08:32;;;;;;;;;;;10.70;99.90;;;;;;5075533;28;19948;-66
2023/01/04 08:11:05;;;;;;;;;;;10.70;99.90;;;;;;5050794;28;19924;-65
2023/01/04 08:13:31;;;;;;;;;;;10.60;99.90;;;;;;5051863;28;19921;-66
2023/01/04 08:15:57;;;;;;;;;;;10.70;99.90;;;;;;5051877;28;20345;-67
2023/01/04 08:18:23;;;;;;;;;;;10.60;99.90;;;;;;5050433;28;19924;-76
2023/01/04 08:20:48;;;;;;;;;;;10.70;99.90;;;;;;5051840;28;20377;-65
2023/01/04 08:23:14;;;;;;;;;;;10.60;99.90;;;;;;5043078;28;19921;-67
2023/01/04 08:25:39;;;;;;;;;;;10.60;99.90;;;;;;5084052;28;20041;-67
2023/01/04 08:28:05;;;;;;;;;;;10.60;99.90;;;;;;5080920;28;19999;-66
2023/01/04 08:30:31;;;;;;;;;;;10.60;99.90;;;;;;5053116;28;19925;-65
2023/01/04 08:32:56;;;;;;;;;;;10.60;99.90;;;;;;5039206;28;19925;-76
2023/01/04 08:35:22;;;;;;;;;;;10.60;99.90;;;;;;5039542;28;20368;-65
2023/01/04 08:37:48;;;;;;;;;;;10.70;99.90;;;;;;5039285;28;20371;-64
2023/01/04 08:40:13;;;;;;;;;;;10.60;99.90;;;;;;5050980;28;20003;-65
2023/01/04 08:42:39;;;;;;;;;;;10.60;99.90;;;;;;5049424;28;19921;-65
2023/01/04 08:45:05;;;;;;;;;;;10.70;99.90;;;;;;5046438;28;19928;-68
2023/01/04 08:47:31;;;;;;;;;;;10.70;99.90;;;;;;5042766;28;19932;-65
2023/01/04 08:49:58;;;;;;;;;;;10.70;99.90;;;;;;5041374;28;19974;-69
2023/01/04 08:52:24;;;;;;;;;;;10.70;99.90;;;;;;5036549;28;20374;-65
2023/01/04 08:54:49;;;;;;;;;;;10.70;99.90;;;;;;5046910;28;20033;-66
2023/01/04 08:57:16;;;;;;;;;;;10.70;99.90;;;;;;5038276;28;19999;-65
2023/01/04 08:59:41;;;;;;;;;;;10.70;99.90;;;;;;5070551;28;19928;-65
2023/01/04 09:02:21;;;;;;;;;;;10.70;99.90;;;;;;5052172;28;19925;-66
2023/01/04 09:04:46;;;;;;;;;;;10.70;99.90;;;;;;5046908;28;19925;-66
2023/01/04 09:07:12;;;;;;;;;;;10.70;99.90;;;;;;5047756;28;19921;-65
2023/01/04 09:09:38;;;;;;;;;;;10.70;99.90;;;;;;5043812;28;20277;-66
2023/01/04 09:12:03;;;;;;;;;;;10.70;99.90;;;;;;5046543;28;19921;-65
2023/01/04 09:14:29;;;;;;;;;;;10.70;99.90;;;;;;5048394;28;20011;-76
2023/01/04 09:16:54;;;;;;;;;;;10.70;99.90;;;;;;5047729;28;19920;-69
2023/01/04 09:19:20;;;;;;;;;;;10.80;99.90;;;;;;5049301;28;20030;-75
2023/01/04 09:21:45;;;;;;;;;;;10.70;99.90;;;;;;5045934;28;19928;-65
2023/01/04 09:24:12;;;;;;;;;;;10.80;99.90;;;;;;5067951;28;19921;-67
2023/01/04 09:26:38;;;;;;;;;;;10.80;99.90;;;;;;5044539;28;19921;-67
2023/01/04 09:29:05;;;;;;;;;;;10.80;99.90;;;;;;5049381;28;19920;-65
2023/01/04 09:31:31;;;;;;;;;;;10.70;99.90;;;;;;5049537;28;19990;-65
2023/01/04 09:33:57;;;;;;;;;;;10.70;99.90;;;;;;5043057;28;19921;-65
2023/01/04 09:36:25;;;;;;;;;;;10.80;99.90;;;;;;5038392;28;20399;-65
2023/01/04 09:38:51;;;;;;;;;;;10.80;99.90;;;;;;5033273;28;19936;-67
2023/01/04 09:41:25;;;;;;;;;;;10.80;99.90;;;;;;5041143;28;19930;-65
2023/01/04 09:43:53;;;;;;;;;;;10.70;99.90;;;;;;5051326;28;20290;-72
2023/01/04 09:46:45;;;;;;;;;;;10.80;99.90;;;;;;5052947;28;19921;-67
2023/01/04 09:49:15;;;;;;;;;;;10.80;99.90;;;;;;5035099;28;20015;-67
2023/01/04 09:51:42;;;;;;;;;;;10.80;99.90;;;;;;5050386;28;19931;-66
2023/01/04 09:54:15;;;;;;;;;;;10.90;99.90;;;;;;5051590;28;19921;-65
2023/01/04 09:56:44;;;;;;;;;;;10.80;99.90;;;;;;5050493;28;19967;-67
2023/01/04 09:59:13;;;;;;;;;;;10.90;99.90;;;;;;5046816;28;19929;-67
2023/01/04 10:01:44;;;;;;;;;;;10.80;99.90;;;;;;5046992;28;20401;-65
2023/01/04 10:04:23;;;;;;;;;;;10.90;99.90;;;;;;5060697;28;19968;-65
2023/01/04 10:06:50;;;;;;;;;;;10.90;99.90;;;;;;5042044;28;19924;-65
2023/01/04 10:09:15;;;;;;;;;;;10.80;99.90;;;;;;5047615;28;19932;-65
2023/01/04 10:11:51;;;;;;;;;;;10.90;99.90;;;;;;5050969;28;19921;-66
2023/01/04 10:14:37;;;;;;;;;;;10.90;99.90;;;;;;5057637;28;19931;-66
2023/01/04 10:17:05;;;;;;;;;;;10.90;99.90;;;;;;5039161;28;20329;-68
2023/01/04 10:19:33;;;;;;;;;;;11.00;99.90;;;;;;5048622;28;20010;-66
2023/01/04 10:22:05;;;;;;;;;;;11.00;99.90;;;;;;5043337;28;20015;-65
2023/01/04 10:24:49;;;;;;;;;;;11.00;99.90;;;;;;5050041;28;19920;-66
2023/01/04 10:27:15;;;;;;;;;;;11.10;99.90;;;;;;5035674;28;20028;-65
2023/01/04 10:29:40;;;;;;;;;;;11.20;99.90;;;;;;5046973;28;20019;-79
2023/01/04 10:32:28;;;;;;;;;;;11.20;99.90;;;;;;5038196;28;20019;-66
2023/01/04 10:34:54;;;;;;;;;;;11.10;99.90;;;;;;5045916;28;19960;-66
2023/01/04 10:37:20;;;;;;;;;;;11.30;99.90;;;;;;5042214;28;20382;-65
2023/01/04 10:39:50;;;;;;;;;;;11.30;99.90;;;;;;5081290;28;19925;-67
2023/01/04 10:42:18;;;;;;;;;;;11.20;99.90;;;;;;5047339;28;20374;-66
2023/01/04 10:44:53;;;;;;;;;;;11.30;99.90;;;;;;5049402;28;19924;-66
2023/01/04 10:47:24;;;;;;;;;;;11.40;99.90;;;;;;5050805;28;20386;-66
2023/01/04 10:49:55;;;;;;;;;;;11.40;99.90;;;;;;5048698;28;19929;-68
2023/01/04 10:52:26;;;;;;;;;;;11.40;99.90;;;;;;5044418;28;20299;-66
2023/01/04 10:54:56;;;;;;;;;;;11.60;99.90;;;;;;5050862;28;20371;-67
2023/01/04 10:57:25;;;;;;;;;;;11.40;99.90;;;;;;5050433;28;19990;-67
2023/01/04 10:59:54;;;;;;;;;;;11.50;99.90;;;;;;5049694;28;19925;-66
2023/01/04 11:02:38;;;;;;;;;;;11.50;99.90;;;;;;5045247;28;20394;-73
2023/01/04 11:05:11;;;;;;;;;;;11.60;99.90;;;;;;5051585;28;19977;-64
2023/01/04 11:07:46;;;;;;;;;;;11.70;99.90;;;;;;5051884;28;20041;-66
2023/01/04 11:10:14;;;;;;;;;;;11.60;99.90;;;;;;5049371;28;19924;-66
2023/01/04 11:12:39;;;;;;;;;;;11.70;99.90;;;;;;5049603;28;19927;-66
2023/01/04 11:15:05;;;;;;;;;;;11.70;99.90;;;;;;5034668;28;21082;-65
2023/01/04 11:17:31;;;;;;;;;;;11.70;99.90;;;;;;5059799;28;19971;-67
2023/01/04 11:19:57;;;;;;;;;;;11.80;99.90;;;;;;5048464;28;20341;-66
2023/01/04 11:22:26;;;;;;;;;;;11.70;99.90;;;;;;5052060;28;19925;-66
2023/01/04 11:24:58;;;;;;;;;;;11.80;99.90;;;;;;5026490;28;19925;-66
2023/01/04 11:27:25;;;;;;;;;;;11.80;99.90;;;;;;5044443;28;19982;-68
2023/01/04 11:30:00;;;;;;;;;;;11.80;99.90;;;;;;5044823;28;20007;-65
2023/01/04 11:32:34;;;;;;;;;;;11.80;99.90;;;;;;5046561;28;19935;-66
2023/01/04 11:35:00;;;;;;;;;;;11.80;99.90;;;;;;5043607;28;19921;-66
2023/01/04 11:37:32;;;;;;;;;;;11.80;99.90;;;;;;5045920;28;19924;-69
2023/01/04 11:40:16;;;;;;;;;;;11.80;99.90;;;;;;5054527;28;19920;-66
2023/01/04 11:42:46;;;;;;;;;;;11.90;99.90;;;;;;5043826;28;19940;-67
2023/01/04 11:45:29;;;;;;;;;;;11.90;99.90;;;;;;5040588;28;19925;-68
2023/01/04 11:47:56;;;;;;;;;;;11.90;99.90;;;;;;5046937;28;19991;-68
2023/01/04 11:50:35;;;;;;;;;;;11.90;99.90;;;;;;5047480;28;19951;-67
2023/01/04 11:53:01;;;;;;;;;;;11.90;99.90;;;;;;5045427;28;19979;-67
2023/01/04 11:55:28;;;;;;;;;;;12.00;99.90;;;;;;5041941;28;20000;-67
2023/01/04 11:58:06;;;;;;;;;;;11.80;99.90;;;;;;5043750;28;19920;-68
2023/01/04 12:00:31;;;;;;;;;;;11.90;99.90;;;;;;5040701;28;19967;-67
2023/01/04 12:03:17;;;;;;;;;;;11.90;99.90;;;;;;5049992;28;19924;-69
2023/01/04 12:05:43;;;;;;;;;;;11.90;99.90;;;;;;5052176;28;19932;-68
2023/01/04 12:08:22;;;;;;;;;;;11.80;99.90;;;;;;5050716;28;20289;-67
2023/01/04 12:10:48;;;;;;;;;;;11.90;99.90;;;;;;5043112;28;19920;-71
2023/01/04 12:13:13;;;;;;;;;;;11.80;99.90;;;;;;5049291;28;20393;-67
2023/01/04 12:15:48;;;;;;;;;;;11.90;99.90;;;;;;5046766;28;19924;-69
2023/01/04 12:18:27;;;;;;;;;;;11.90;99.90;;;;;;5038137;28;19970;-66
2023/01/04 12:20:54;;;;;;;;;;;11.90;99.90;;;;;;5049663;28;20354;-73
2023/01/04 12:23:20;;;;;;;;;;;12.00;99.90;;;;;;5044539;28;19972;-67
2023/01/04 12:25:51;;;;;;;;;;;12.00;99.90;;;;;;5038428;28;20333;-67
2023/01/04 12:28:30;;;;;;;;;;;12.00;99.90;;;;;;5043821;28;19929;-67
2023/01/04 12:31:15;;;;;;;;;;;12.00;99.90;;;;;;5038744;28;20346;-67
2023/01/04 12:33:41;;;;;;;;;;;12.00;99.90;;;;;;5040793;28;20338;-69
2023/01/04 12:36:14;;;;;;;;;;;12.00;99.90;;;;;;5044932;28;19960;-68
2023/01/04 12:38:58;;;;;;;;;;;12.00;99.90;;;;;;5039029;28;19975;-68
2023/01/04 12:42:02;;;;;;;;;;;12.00;99.90;;;;;;5042692;28;19921;-68
2023/01/04 12:44:46;;;;;;;;;;;12.10;99.90;;;;;;5057384;28;19921;-68
2023/01/04 12:50:00;;;;;;;;;;;12.00;99.90;;;;;;5039013;28;19928;-65
2023/01/04 12:52:26;;;;;;;;;;;12.00;99.90;;;;;;5047447;28;20381;-66
2023/01/04 12:55:02;;;;;;;;;;;12.00;99.90;;;;;;5042910;28;19959;-67
2023/01/04 12:57:32;;;;;;;;;;;12.10;99.90;;;;;;5044316;28;19925;-68
2023/01/04 12:59:59;;;;;;;;;;;12.00;99.90;;;;;;5044901;28;19924;-67
2023/01/04 13:02:46;;;;;;;;;;;12.00;99.90;;;;;;5041957;28;19921;-66
2023/01/04 13:05:15;;;;;;;;;;;12.00;99.90;;;;;;5054472;28;19921;-67
2023/01/04 13:07:42;;;;;;;;;;;12.00;99.90;;;;;;5046261;28;19925;-67
2023/01/04 13:10:37;;;;;;;;;;;11.90;99.90;;;;;;5050404;28;20027;-67
2023/01/04 13:13:14;;;;;;;;;;;12.00;99.90;;;;;;5036674;28;19992;-67
2023/01/04 13:15:59;;;;;;;;;;;11.90;99.90;;;;;;5047930;28;19924;-67
2023/01/04 13:18:33;;;;;;;;;;;11.90;99.90;;;;;;5042312;28;19925;-67
2023/01/04 13:21:00;;;;;;;;;;;11.90;99.90;;;;;;5035889;28;20536;-69
2023/01/04 13:23:26;;;;;;;;;;;11.90;99.90;;;;;;5037746;28;20380;-67
2023/01/04 13:25:51;;;;;;;;;;;11.90;99.90;;;;;;5046496;28;20412;-66
2023/01/04 13:28:18;;;;;;;;;;;11.90;99.90;;;;;;5051250;28;19972;-66
2023/01/04 13:30:44;;;;;;;;;;;11.90;99.90;;;;;;5052059;28;20394;-66
2023/01/04 13:33:20;;;;;;;;;;;11.80;99.90;;;;;;5050289;28;19947;-66
2023/01/04 13:36:03;;;;;;;;;;;11.80;99.90;;;;;;5049553;28;19928;-66
2023/01/04 13:38:30;;;;;;;;;;;11.90;99.90;;;;;;5047441;28;20024;-65
2023/01/04 13:40:56;;;;;;;;;;;11.80;99.90;;;;;;5050912;28;19925;-67
2023/01/04 13:43:36;;;;;;;;;;;11.90;99.90;;;;;;5049557;28;20369;-66
2023/01/04 13:46:21;;;;;;;;;;;11.80;99.90;;;;;;5050023;28;19921;-78
2023/01/04 13:48:48;;;;;;;;;;;11.80;99.90;;;;;;5054011;28;19920;-66
2023/01/04 13:51:16;;;;;;;;;;;11.80;99.90;;;;;;5051394;28;19966;-69
2023/01/04 13:53:42;;;;;;;;;;;11.80;99.90;;;;;;5052390;28;20342;-66
2023/01/04 13:56:17;;;;;;;;;;;11.80;99.90;;;;;;5053467;28;19936;-67
2023/01/04 13:58:43;;;;;;;;;;;11.80;99.90;;;;;;5055409;28;19998;-66
2023/01/04 14:01:27;;;;;;;;;;;11.80;99.90;;;;;;5053540;28;19983;-66
2023/01/04 14:03:58;;;;;;;;;;;11.80;99.90;;;;;;5053421;28;20370;-66
2023/01/04 14:06:46;;;;;;;;;;;11.80;99.90;;;;;;5053794;28;19923;-67
2023/01/04 14:09:14;;;;;;;;;;;11.80;99.90;;;;;;5045514;28;19921;-66
2023/01/04 14:11:58;;;;;;;;;;;11.80;99.90;;;;;;5054273;28;19920;-66
2023/01/04 14:14:42;;;;;;;;;;;11.80;99.90;;;;;;5063134;28;19920;-66
2023/01/04 14:17:07;;;;;;;;;;;11.80;99.90;;;;;;5048961;28;19932;-66
2023/01/04 14:19:45;;;;;;;;;;;11.80;99.90;;;;;;5050869;28;19921;-70
2023/01/04 14:22:37;;;;;;;;;;;11.80;99.90;;;;;;5048696;28;19966;-68
2023/01/04 14:25:22;;;;;;;;;;;11.70;99.90;;;;;;5034850;28;19936;-66
2023/01/04 14:27:47;;;;;;;;;;;11.70;99.90;;;;;;5044114;28;19921;-68
2023/01/04 14:30:22;;;;;;;;;;;11.70;99.90;;;;;;5029855;28;19936;-66
2023/01/04 14:32:57;;;;;;;;;;;11.70;99.90;;;;;;5046015;28;19920;-73
2023/01/04 14:35:24;;;;;;;;;;;11.70;99.90;;;;;;5051171;28;19920;-65
2023/01/04 14:37:49;;;;;;;;;;;11.70;99.90;;;;;;5051239;28;19996;-65
2023/01/04 14:40:26;;;;;;;;;;;11.70;99.90;;;;;;5049271;28;20012;-65
2023/01/04 14:42:52;;;;;;;;;;;11.70;99.90;;;;;;5038359;28;19964;-65
2023/01/04 14:45:17;;;;;;;;;;;11.70;99.90;;;;;;5044312;28;19969;-65
2023/01/04 14:47:43;;;;;;;;;;;11.70;99.90;;;;;;5039556;28;19931;-65
2023/01/04 14:50:11;;;;;;;;;;;11.70;99.90;;;;;;5048273;28;19924;-65
2023/01/04 14:52:37;;;;;;;;;;;11.70;99.90;;;;;;5045520;28;19960;-64
2023/01/04 14:55:03;;;;;;;;;;;12.10;99.90;;;;;;5051387;28;20417;-65
2023/01/04 14:57:29;;;;;;;;;;;11.60;99.90;;;;;;5041932;28;19924;-65
2023/01/04 14:59:55;;;;;;;;;;;11.60;99.90;;;;;;5046168;28;19924;-68
2023/01/04 15:02:22;;;;;;;;;;;11.60;99.90;;;;;;5042599;28;19944;-73
2023/01/04 15:04:48;;;;;;;;;;;11.60;99.90;;;;;;5082422;28;19921;-66
2023/01/04 15:07:31;;;;;;;;;;;11.60;99.90;;;;;;5043805;28;19925;-66
2023/01/04 15:09:56;;;;;;;;;;;11.50;99.90;;;;;;5049911;28;19925;-71
2023/01/04 15:12:22;;;;;;;;;;;11.50;99.90;;;;;;5045561;28;20278;-65
2023/01/04 15:14:47;;;;;;;;;;;11.50;99.90;;;;;;5043526;28;19924;-65
2023/01/04 15:17:13;;;;;;;;;;;11.50;99.90;;;;;;5044713;28;19920;-64
2023/01/04 15:19:38;;;;;;;;;;;11.50;99.90;;;;;;5042460;28;19979;-67
2023/01/04 15:22:04;;;;;;;;;;;11.50;99.90;;;;;;5042164;28;19941;-66